sensor_id;sensor_type;location;lat;lon;timestamp;temperature;humidity
2463;DHT22;1243;54.298;10.172;2022-11-15T00:00:50;6.10;99.90
2463;DHT22;1243;54.298;10.172;2022-11-15T00:03:17;6.10;99.90
2463;DHT22;1243;54.298;10.172;2022-11-15T00:05:44;6.10;99.90
2463;DHT22;1243;54.298;10.172;2022-11-15T00:08:10;6.10;99.90
2463;DHT22;1243;54.298;10.172;2022-11-15T00:10:36;6.10;99.90
2463;DHT22;1243;54.298;10.172;2022-11-15T00:13:11;6.10;99.90
2463;DHT22;1243;54.298;10.172;2022-11-15T00:15:38;6.10;99.90
2463;DHT22;1243;54.298;10.172;2022-11-15T00:18:14;6.10;99.90
2463;DHT22;1243;54.298;10.172;2022-11-15T00:20:40;6.10;99.90
2463;DHT22;1243;54.298;10.172;2022-11-15T00:23:06;6.10;99.90
2463;DHT22;1243;54.298;10.172;2022-11-15T00:25:32;6.10;99.90
2463;DHT22;1243;54.298;10.172;2022-11-15T00:27:59;6.10;99.90
2463;DHT22;1243;54.298;10.172;2022-11-15T00:30:25;6.10;99.90
2463;DHT22;1243;54.298;10.172;2022-11-15T00:32:51;6.20;99.90
2463;DHT22;1243;54.298;10.172;2022-11-15T00:35:18;6.20;99.90
2463;DHT22;1243;54.298;10.172;2022-11-15T00:37:47;6.20;99.90
2463;DHT22;1243;54.298;10.172;2022-11-15T00:40:13;6.30;99.90
2463;DHT22;1243;54.298;10.172;2022-11-15T00:42:40;6.40;99.90
2463;DHT22;1243;54.298;10.172;2022-11-15T00:45:06;6.40;99.90
2463;DHT22;1243;54.298;10.172;2022-11-15T00:47:31;6.50;99.90
2463;DHT22;1243;54.298;10.172;2022-11-15T00:49:57;6.60;99.90
2463;DHT22;1243;54.298;10.172;2022-11-15T00:52:23;6.50;99.90
2463;DHT22;1243;54.298;10.172;2022-11-15T00:54:49;6.50;99.90
2463;DHT22;1243;54.298;10.172;2022-11-15T00:57:15;6.50;99.90
2463;DHT22;1243;54.298;10.172;2022-11-15T00:59:40;6.60;99.90
2463;DHT22;1243;54.298;10.172;2022-11-15T01:02:06;6.60;99.90
2463;DHT22;1243;54.298;10.172;2022-11-15T01:04:32;6.60;99.90
2463;DHT22;1243;54.298;10.172;2022-11-15T01:06:57;6.70;99.90
2463;DHT22;1243;54.298;10.172;2022-11-15T01:09:23;6.70;99.90
2463;DHT22;1243;54.298;10.172;2022-11-15T01:11:49;6.60;99.90
2463;DHT22;1243;54.298;10.172;2022-11-15T01:14:15;6.60;99.90
2463;DHT22;1243;54.298;10.172;2022-11-15T01:16:40;6.60;99.90
2463;DHT22;1243;54.298;10.172;2022-11-15T01:19:06;6.60;99.90
2463;DHT22;1243;54.298;10.172;2022-11-15T01:21:32;6.70;99.90
2463;DHT22;1243;54.298;10.172;2022-11-15T01:23:57;6.70;99.90
2463;DHT22;1243;54.298;10.172;2022-11-15T01:26:24;6.70;99.90
2463;DHT22;1243;54.298;10.172;2022-11-15T01:28:50;6.70;99.90
2463;DHT22;1243;54.298;10.172;2022-11-15T01:31:20;6.80;99.90
2463;DHT22;1243;54.298;10.172;2022-11-15T01:33:46;6.80;99.90
2463;DHT22;1243;54.298;10.172;2022-11-15T01:36:22;6.80;99.90
2463;DHT22;1243;54.298;10.172;2022-11-15T01:38:54;6.80;99.90
2463;DHT22;1243;54.298;10.172;2022-11-15T01:41:26;6.80;99.90
2463;DHT22;1243;54.298;10.172;2022-11-15T01:43:55;6.80;99.90
2463;DHT22;1243;54.298;10.172;2022-11-15T01:46:29;6.80;99.90
2463;DHT22;1243;54.298;10.172;2022-11-15T01:49:05;6.80;99.90
2463;DHT22;1243;54.298;10.172;2022-11-15T01:51:37;6.80;99.90
2463;DHT22;1243;54.298;10.172;2022-11-15T01:54:09;6.80;99.90
2463;DHT22;1243;54.298;10.172;2022-11-15T01:56:43;6.80;99.90
2463;DHT22;1243;54.298;10.172;2022-11-15T01:59:11;6.80;99.90
2463;DHT22;1243;54.298;10.172;2022-11-15T02:01:38;6.80;99.90
2463;DHT22;1243;54.298;10.172;2022-11-15T02:04:16;6.80;99.90
2463;DHT22;1243;54.298;10.172;2022-11-15T02:06:44;6.70;99.90
2463;DHT22;1243;54.298;10.172;2022-11-15T02:09:12;6.70;99.90
2463;DHT22;1243;54.298;10.172;2022-11-15T02:11:38;6.70;99.90
2463;DHT22;1243;54.298;10.172;2022-11-15T02:14:05;6.70;99.90
2463;DHT22;1243;54.298;10.172;2022-11-15T02:19:40;6.70;99.90
2463;DHT22;1243;54.298;10.172;2022-11-15T02:25:06;6.80;99.90
2463;DHT22;1243;54.298;10.172;2022-11-15T02:33:47;6.80;99.90
2463;DHT22;1243;54.298;10.172;2022-11-15T02:36:39;6.80;99.90
2463;DHT22;1243;54.298;10.172;2022-11-15T02:44:35;6.80;99.90
2463;DHT22;1243;54.298;10.172;2022-11-15T02:47:06;6.80;99.90
2463;DHT22;1243;54.298;10.172;2022-11-15T02:50:00;6.80;99.90
2463;DHT22;1243;54.298;10.172;2022-11-15T02:52:27;6.80;99.90
2463;DHT22;1243;54.298;10.172;2022-11-15T02:54:57;6.80;99.90
2463;DHT22;1243;54.298;10.172;2022-11-15T02:57:45;6.80;99.90
2463;DHT22;1243;54.298;10.172;2022-11-15T03:00:20;6.80;99.90
2463;DHT22;1243;54.298;10.172;2022-11-15T03:11:15;6.70;99.90
2463;DHT22;1243;54.298;10.172;2022-11-15T03:19:44;6.70;99.90
2463;DHT22;1243;54.298;10.172;2022-11-15T03:22:14;6.60;99.90
2463;DHT22;1243;54.298;10.172;2022-11-15T03:24:42;6.60;99.90
2463;DHT22;1243;54.298;10.172;2022-11-15T03:27:11;6.60;99.90
2463;DHT22;1243;54.298;10.172;2022-11-15T03:29:46;6.60;99.90
2463;DHT22;1243;54.298;10.172;2022-11-15T03:32:16;6.60;99.90
2463;DHT22;1243;54.298;10.172;2022-11-15T03:34:53;6.50;99.90
2463;DHT22;1243;54.298;10.172;2022-11-15T03:37:27;6.50;99.90
2463;DHT22;1243;54.298;10.172;2022-11-15T03:39:55;6.50;99.90
2463;DHT22;1243;54.298;10.172;2022-11-15T03:42:32;6.50;99.90
2463;DHT22;1243;54.298;10.172;2022-11-15T03:50:22;6.50;99.90
2463;DHT22;1243;54.298;10.172;2022-11-15T03:52:49;6.50;99.90
2463;DHT22;1243;54.298;10.172;2022-11-15T03:55:18;6.40;99.90
2463;DHT22;1243;54.298;10.172;2022-11-15T03:57:44;6.40;99.90
2463;DHT22;1243;54.298;10.172;2022-11-15T04:00:11;6.40;99.90
2463;DHT22;1243;54.298;10.172;2022-11-15T04:02:37;6.40;99.90
2463;DHT22;1243;54.298;10.172;2022-11-15T04:05:03;6.40;99.90
2463;DHT22;1243;54.298;10.172;2022-11-15T04:07:29;6.30;99.90
2463;DHT22;1243;54.298;10.172;2022-11-15T04:09:54;6.40;99.90
2463;DHT22;1243;54.298;10.172;2022-11-15T04:12:32;6.40;99.90
2463;DHT22;1243;54.298;10.172;2022-11-15T04:15:06;6.40;99.90
2463;DHT22;1243;54.298;10.172;2022-11-15T04:17:37;6.40;99.90
2463;DHT22;1243;54.298;10.172;2022-11-15T04:20:05;6.30;99.90
2463;DHT22;1243;54.298;10.172;2022-11-15T04:22:52;6.30;99.90
2463;DHT22;1243;54.298;10.172;2022-11-15T04:25:37;6.30;99.90
2463;DHT22;1243;54.298;10.172;2022-11-15T04:28:03;6.30;99.90
2463;DHT22;1243;54.298;10.172;2022-11-15T04:30:29;6.30;99.90
2463;DHT22;1243;54.298;10.172;2022-11-15T04:32:54;6.20;99.90
2463;DHT22;1243;54.298;10.172;2022-11-15T04:35:20;6.20;99.90
2463;DHT22;1243;54.298;10.172;2022-11-15T04:37:46;6.20;99.90
2463;DHT22;1243;54.298;10.172;2022-11-15T04:40:11;6.20;99.90
2463;DHT22;1243;54.298;10.172;2022-11-15T04:42:43;6.20;99.90
2463;DHT22;1243;54.298;10.172;2022-11-15T04:45:09;6.20;99.90
2463;DHT22;1243;54.298;10.172;2022-11-15T04:47:35;6.10;99.90
2463;DHT22;1243;54.298;10.172;2022-11-15T04:50:01;6.10;99.90
2463;DHT22;1243;54.298;10.172;2022-11-15T04:52:27;6.10;99.90
2463;DHT22;1243;54.298;10.172;2022-11-15T04:54:53;6.10;99.90
2463;DHT22;1243;54.298;10.172;2022-11-15T04:57:18;6.10;99.90
2463;DHT22;1243;54.298;10.172;2022-11-15T04:59:44;6.10;99.90
2463;DHT22;1243;54.298;10.172;2022-11-15T05:02:10;6.10;99.90
2463;DHT22;1243;54.298;10.172;2022-11-15T05:04:36;6.00;99.90
2463;DHT22;1243;54.298;10.172;2022-11-15T05:07:02;6.00;99.90
2463;DHT22;1243;54.298;10.172;2022-11-15T05:09:29;6.00;99.90
2463;DHT22;1243;54.298;10.172;2022-11-15T05:11:55;6.00;99.90
2463;DHT22;1243;54.298;10.172;2022-11-15T05:14:21;6.00;99.90
2463;DHT22;1243;54.298;10.172;2022-11-15T05:16:46;5.90;99.90
2463;DHT22;1243;54.298;10.172;2022-11-15T05:19:12;5.90;99.90
2463;DHT22;1243;54.298;10.172;2022-11-15T05:21:41;6.00;99.90
2463;DHT22;1243;54.298;10.172;2022-11-15T05:24:10;6.00;99.90
2463;DHT22;1243;54.298;10.172;2022-11-15T05:26:35;6.00;99.90
2463;DHT22;1243;54.298;10.172;2022-11-15T05:29:01;6.00;99.90
2463;DHT22;1243;54.298;10.172;2022-11-15T05:31:27;6.00;99.90
2463;DHT22;1243;54.298;10.172;2022-11-15T05:33:54;6.00;99.90
2463;DHT22;1243;54.298;10.172;2022-11-15T05:36:35;6.00;99.90
2463;DHT22;1243;54.298;10.172;2022-11-15T05:39:02;6.00;99.90
2463;DHT22;1243;54.298;10.172;2022-11-15T05:41:39;6.10;99.90
2463;DHT22;1243;54.298;10.172;2022-11-15T05:44:09;6.20;1.00
2463;DHT22;1243;54.298;10.172;2022-11-15T05:46:37;6.30;1.00
2463;DHT22;1243;54.298;10.172;2022-11-15T05:49:10;6.40;1.00
2463;DHT22;1243;54.298;10.172;2022-11-15T05:51:38;6.50;1.00
2463;DHT22;1243;54.298;10.172;2022-11-15T05:54:04;6.60;1.00
2463;DHT22;1243;54.298;10.172;2022-11-15T05:56:30;6.60;1.00
2463;DHT22;1243;54.298;10.172;2022-11-15T05:58:57;6.70;1.00
2463;DHT22;1243;54.298;10.172;2022-11-15T06:01:25;6.80;1.00
2463;DHT22;1243;54.298;10.172;2022-11-15T06:03:51;6.80;1.00
2463;DHT22;1243;54.298;10.172;2022-11-15T06:06:17;6.90;1.00
2463;DHT22;1243;54.298;10.172;2022-11-15T06:08:45;7.00;1.00
2463;DHT22;1243;54.298;10.172;2022-11-15T06:11:13;7.00;1.00
2463;DHT22;1243;54.298;10.172;2022-11-15T06:13:39;7.00;1.00
2463;DHT22;1243;54.298;10.172;2022-11-15T06:16:05;7.00;1.00
2463;DHT22;1243;54.298;10.172;2022-11-15T06:18:35;7.00;1.00
2463;DHT22;1243;54.298;10.172;2022-11-15T06:21:01;7.00;1.00
2463;DHT22;1243;54.298;10.172;2022-11-15T06:23:28;7.00;1.00
2463;DHT22;1243;54.298;10.172;2022-11-15T06:25:58;7.00;1.00
2463;DHT22;1243;54.298;10.172;2022-11-15T06:28:23;7.10;1.00
2463;DHT22;1243;54.298;10.172;2022-11-15T06:30:49;7.10;1.00
2463;DHT22;1243;54.298;10.172;2022-11-15T06:33:15;7.20;1.00
2463;DHT22;1243;54.298;10.172;2022-11-15T06:35:41;7.20;1.00
2463;DHT22;1243;54.298;10.172;2022-11-15T06:38:09;7.20;1.00
2463;DHT22;1243;54.298;10.172;2022-11-15T06:40:36;7.20;1.00
2463;DHT22;1243;54.298;10.172;2022-11-15T06:43:03;7.30;1.00
2463;DHT22;1243;54.298;10.172;2022-11-15T06:45:30;7.30;1.00
2463;DHT22;1243;54.298;10.172;2022-11-15T06:47:56;7.20;1.00
2463;DHT22;1243;54.298;10.172;2022-11-15T06:50:22;7.20;1.00
2463;DHT22;1243;54.298;10.172;2022-11-15T06:52:48;7.10;1.00
2463;DHT22;1243;54.298;10.172;2022-11-15T06:55:14;7.20;1.00
2463;DHT22;1243;54.298;10.172;2022-11-15T06:57:50;7.20;99.90
2463;DHT22;1243;54.298;10.172;2022-11-15T07:00:17;7.20;99.90
2463;DHT22;1243;54.298;10.172;2022-11-15T07:02:43;7.20;1.00
2463;DHT22;1243;54.298;10.172;2022-11-15T07:05:09;7.20;1.00
2463;DHT22;1243;54.298;10.172;2022-11-15T07:07:35;7.20;1.00
2463;DHT22;1243;54.298;10.172;2022-11-15T07:10:01;7.20;99.90
2463;DHT22;1243;54.298;10.172;2022-11-15T07:12:26;7.20;1.00
2463;DHT22;1243;54.298;10.172;2022-11-15T07:14:52;7.10;99.90
2463;DHT22;1243;54.298;10.172;2022-11-15T07:17:18;7.20;99.90
2463;DHT22;1243;54.298;10.172;2022-11-15T07:19:44;7.20;1.00
2463;DHT22;1243;54.298;10.172;2022-11-15T07:22:09;7.20;1.00
2463;DHT22;1243;54.298;10.172;2022-11-15T07:24:35;7.30;1.00
2463;DHT22;1243;54.298;10.172;2022-11-15T07:27:01;7.30;1.00
2463;DHT22;1243;54.298;10.172;2022-11-15T07:29:26;7.40;1.00
2463;DHT22;1243;54.298;10.172;2022-11-15T07:31:52;7.40;1.00
2463;DHT22;1243;54.298;10.172;2022-11-15T07:34:18;7.40;1.00
2463;DHT22;1243;54.298;10.172;2022-11-15T07:36:43;7.50;1.00
2463;DHT22;1243;54.298;10.172;2022-11-15T07:39:09;7.50;1.00
2463;DHT22;1243;54.298;10.172;2022-11-15T07:41:37;7.50;1.00
2463;DHT22;1243;54.298;10.172;2022-11-15T07:44:04;7.50;1.00
2463;DHT22;1243;54.298;10.172;2022-11-15T07:46:31;7.50;1.00
2463;DHT22;1243;54.298;10.172;2022-11-15T07:48:56;7.50;1.00
2463;DHT22;1243;54.298;10.172;2022-11-15T07:51:23;7.60;1.00
2463;DHT22;1243;54.298;10.172;2022-11-15T07:53:48;7.60;1.00
2463;DHT22;1243;54.298;10.172;2022-11-15T07:56:16;7.60;1.00
2463;DHT22;1243;54.298;10.172;2022-11-15T07:58:42;7.70;1.00
2463;DHT22;1243;54.298;10.172;2022-11-15T08:01:10;7.70;1.00
2463;DHT22;1243;54.298;10.172;2022-11-15T08:03:36;7.70;1.00
2463;DHT22;1243;54.298;10.172;2022-11-15T08:06:05;7.70;1.00
2463;DHT22;1243;54.298;10.172;2022-11-15T08:08:31;7.70;1.00
2463;DHT22;1243;54.298;10.172;2022-11-15T08:11:00;7.70;1.00
2463;DHT22;1243;54.298;10.172;2022-11-15T08:13:25;7.80;1.00
2463;DHT22;1243;54.298;10.172;2022-11-15T08:15:51;7.80;1.00
2463;DHT22;1243;54.298;10.172;2022-11-15T08:18:17;7.90;1.00
2463;DHT22;1243;54.298;10.172;2022-11-15T08:20:43;7.90;1.00
2463;DHT22;1243;54.298;10.172;2022-11-15T08:23:11;7.90;1.00
2463;DHT22;1243;54.298;10.172;2022-11-15T08:25:37;7.90;1.00
2463;DHT22;1243;54.298;10.172;2022-11-15T08:28:05;7.90;1.00
2463;DHT22;1243;54.298;10.172;2022-11-15T08:30:36;7.90;1.00
2463;DHT22;1243;54.298;10.172;2022-11-15T08:33:03;7.90;1.00
2463;DHT22;1243;54.298;10.172;2022-11-15T08:35:29;8.00;1.00
2463;DHT22;1243;54.298;10.172;2022-11-15T08:37:54;8.00;1.00
2463;DHT22;1243;54.298;10.172;2022-11-15T08:40:20;8.10;1.00
2463;DHT22;1243;54.298;10.172;2022-11-15T08:42:47;8.10;1.00
2463;DHT22;1243;54.298;10.172;2022-11-15T08:45:13;8.20;1.00
2463;DHT22;1243;54.298;10.172;2022-11-15T08:47:39;8.20;1.00
2463;DHT22;1243;54.298;10.172;2022-11-15T08:50:05;8.20;1.00
2463;DHT22;1243;54.298;10.172;2022-11-15T08:52:31;8.30;1.00
2463;DHT22;1243;54.298;10.172;2022-11-15T08:54:57;8.30;1.00
2463;DHT22;1243;54.298;10.172;2022-11-15T08:57:23;8.30;1.00
2463;DHT22;1243;54.298;10.172;2022-11-15T08:59:49;8.40;1.00
2463;DHT22;1243;54.298;10.172;2022-11-15T09:02:14;8.40;1.00
2463;DHT22;1243;54.298;10.172;2022-11-15T09:04:41;8.50;1.00
2463;DHT22;1243;54.298;10.172;2022-11-15T09:07:09;8.50;1.00
2463;DHT22;1243;54.298;10.172;2022-11-15T09:09:34;8.50;99.90
2463;DHT22;1243;54.298;10.172;2022-11-15T09:12:00;8.50;99.90
2463;DHT22;1243;54.298;10.172;2022-11-15T09:14:26;8.50;99.90
2463;DHT22;1243;54.298;10.172;2022-11-15T09:16:52;8.50;99.90
2463;DHT22;1243;54.298;10.172;2022-11-15T09:19:20;8.50;99.90
2463;DHT22;1243;54.298;10.172;2022-11-15T09:21:46;8.60;99.90
2463;DHT22;1243;54.298;10.172;2022-11-15T09:24:12;8.70;99.90
2463;DHT22;1243;54.298;10.172;2022-11-15T09:26:38;8.70;99.90
2463;DHT22;1243;54.298;10.172;2022-11-15T09:29:04;8.80;99.90
2463;DHT22;1243;54.298;10.172;2022-11-15T09:31:30;8.80;99.90
2463;DHT22;1243;54.298;10.172;2022-11-15T09:33:56;8.80;99.90
2463;DHT22;1243;54.298;10.172;2022-11-15T09:36:21;8.80;99.90
2463;DHT22;1243;54.298;10.172;2022-11-15T09:38:47;8.90;99.90
2463;DHT22;1243;54.298;10.172;2022-11-15T09:44:12;8.80;99.90
2463;DHT22;1243;54.298;10.172;2022-11-15T09:49:29;8.90;99.90
2463;DHT22;1243;54.298;10.172;2022-11-15T09:51:57;8.90;99.90
2463;DHT22;1243;54.298;10.172;2022-11-15T09:54:41;8.90;99.90
2463;DHT22;1243;54.298;10.172;2022-11-15T09:57:11;8.90;99.90
2463;DHT22;1243;54.298;10.172;2022-11-15T10:02:41;9.00;99.90
2463;DHT22;1243;54.298;10.172;2022-11-15T10:05:11;9.00;99.90
2463;DHT22;1243;54.298;10.172;2022-11-15T10:07:55;9.00;99.90
2463;DHT22;1243;54.298;10.172;2022-11-15T10:13:02;9.10;99.90
2463;DHT22;1243;54.298;10.172;2022-11-15T10:15:27;9.10;99.90
2463;DHT22;1243;54.298;10.172;2022-11-15T10:18:06;9.20;99.90
2463;DHT22;1243;54.298;10.172;2022-11-15T10:20:49;9.20;99.90
2463;DHT22;1243;54.298;10.172;2022-11-15T10:23:21;9.20;99.90
2463;DHT22;1243;54.298;10.172;2022-11-15T10:25:47;9.20;99.90
2463;DHT22;1243;54.298;10.172;2022-11-15T10:28:21;9.30;99.90
2463;DHT22;1243;54.298;10.172;2022-11-15T10:30:55;9.30;99.90
2463;DHT22;1243;54.298;10.172;2022-11-15T10:33:34;9.20;99.90
2463;DHT22;1243;54.298;10.172;2022-11-15T10:44:19;9.50;99.90
2463;DHT22;1243;54.298;10.172;2022-11-15T10:49:23;9.50;99.90
2463;DHT22;1243;54.298;10.172;2022-11-15T10:57:33;9.50;99.90
2463;DHT22;1243;54.298;10.172;2022-11-15T11:00:39;9.60;99.90
2463;DHT22;1243;54.298;10.172;2022-11-15T11:03:04;9.60;99.90
2463;DHT22;1243;54.298;10.172;2022-11-15T11:05:36;9.60;99.90
2463;DHT22;1243;54.298;10.172;2022-11-15T11:10:52;9.60;99.90
2463;DHT22;1243;54.298;10.172;2022-11-15T11:13:31;9.60;99.90
2463;DHT22;1243;54.298;10.172;2022-11-15T11:16:19;9.70;99.90
2463;DHT22;1243;54.298;10.172;2022-11-15T11:19:10;9.70;99.90
2463;DHT22;1243;54.298;10.172;2022-11-15T11:24:18;9.60;99.90
2463;DHT22;1243;54.298;10.172;2022-11-15T11:27:13;9.60;99.90
2463;DHT22;1243;54.298;10.172;2022-11-15T11:32:42;9.60;99.90
2463;DHT22;1243;54.298;10.172;2022-11-15T11:37:52;9.70;99.90
2463;DHT22;1243;54.298;10.172;2022-11-15T11:40:28;9.70;99.90
2463;DHT22;1243;54.298;10.172;2022-11-15T11:43:25;9.70;99.90
2463;DHT22;1243;54.298;10.172;2022-11-15T11:46:09;9.70;99.90
2463;DHT22;1243;54.298;10.172;2022-11-15T11:49:03;9.70;99.90
2463;DHT22;1243;54.298;10.172;2022-11-15T11:52:28;9.70;99.90
2463;DHT22;1243;54.298;10.172;2022-11-15T12:00:20;9.70;99.90
2463;DHT22;1243;54.298;10.172;2022-11-15T12:05:29;9.80;99.90
2463;DHT22;1243;54.298;10.172;2022-11-15T12:08:04;9.80;99.90
2463;DHT22;1243;54.298;10.172;2022-11-15T12:10:33;9.80;99.90
2463;DHT22;1243;54.298;10.172;2022-11-15T12:13:30;9.80;99.90
2463;DHT22;1243;54.298;10.172;2022-11-15T12:18:54;9.90;99.90
2463;DHT22;1243;54.298;10.172;2022-11-15T12:22:03;9.90;99.90
2463;DHT22;1243;54.298;10.172;2022-11-15T12:24:43;10.00;99.90
2463;DHT22;1243;54.298;10.172;2022-11-15T12:27:30;10.00;99.90
2463;DHT22;1243;54.298;10.172;2022-11-15T12:30:02;10.00;99.90
2463;DHT22;1243;54.298;10.172;2022-11-15T12:32:36;10.00;99.90
2463;DHT22;1243;54.298;10.172;2022-11-15T12:35:05;9.90;99.90
2463;DHT22;1243;54.298;10.172;2022-11-15T12:42:41;10.10;99.90
2463;DHT22;1243;54.298;10.172;2022-11-15T12:45:28;10.10;99.90
2463;DHT22;1243;54.298;10.172;2022-11-15T12:47:55;10.10;99.90
2463;DHT22;1243;54.298;10.172;2022-11-15T12:50:57;10.20;99.90
2463;DHT22;1243;54.298;10.172;2022-11-15T12:58:53;10.30;99.90
2463;DHT22;1243;54.298;10.172;2022-11-15T13:06:49;10.40;99.90
2463;DHT22;1243;54.298;10.172;2022-11-15T13:12:09;10.40;99.90
2463;DHT22;1243;54.298;10.172;2022-11-15T13:19:58;10.40;99.90
2463;DHT22;1243;54.298;10.172;2022-11-15T13:22:25;10.40;99.90
2463;DHT22;1243;54.298;10.172;2022-11-15T13:31:40;10.40;99.90
2463;DHT22;1243;54.298;10.172;2022-11-15T13:36:51;10.40;99.90
2463;DHT22;1243;54.298;10.172;2022-11-15T13:39:28;10.40;99.90
2463;DHT22;1243;54.298;10.172;2022-11-15T13:41:55;10.40;99.90
2463;DHT22;1243;54.298;10.172;2022-11-15T13:44:27;10.40;99.90
2463;DHT22;1243;54.298;10.172;2022-11-15T13:47:14;10.50;99.90
2463;DHT22;1243;54.298;10.172;2022-11-15T13:49:41;10.40;99.90
2463;DHT22;1243;54.298;10.172;2022-11-15T13:52:10;10.50;99.90
2463;DHT22;1243;54.298;10.172;2022-11-15T13:54:42;10.50;99.90
2463;DHT22;1243;54.298;10.172;2022-11-15T13:57:14;10.50;99.90
2463;DHT22;1243;54.298;10.172;2022-11-15T14:00:04;10.60;99.90
2463;DHT22;1243;54.298;10.172;2022-11-15T14:02:32;10.60;99.90
2463;DHT22;1243;54.298;10.172;2022-11-15T14:05:00;10.60;99.90
2463;DHT22;1243;54.298;10.172;2022-11-15T14:07:28;10.60;99.90
2463;DHT22;1243;54.298;10.172;2022-11-15T14:09:57;10.70;99.90
2463;DHT22;1243;54.298;10.172;2022-11-15T14:12:50;10.70;99.90
2463;DHT22;1243;54.298;10.172;2022-11-15T14:15:38;10.80;99.90
2463;DHT22;1243;54.298;10.172;2022-11-15T14:18:05;10.80;99.90
2463;DHT22;1243;54.298;10.172;2022-11-15T14:20:38;10.80;99.90
2463;DHT22;1243;54.298;10.172;2022-11-15T14:23:30;10.90;99.90
2463;DHT22;1243;54.298;10.172;2022-11-15T14:25:58;10.90;99.90
2463;DHT22;1243;54.298;10.172;2022-11-15T14:30:51;10.90;99.90
2463;DHT22;1243;54.298;10.172;2022-11-15T14:33:33;10.90;99.90
2463;DHT22;1243;54.298;10.172;2022-11-15T14:36:05;11.00;99.90
2463;DHT22;1243;54.298;10.172;2022-11-15T14:38:31;10.90;99.90
2463;DHT22;1243;54.298;10.172;2022-11-15T14:40:57;10.90;99.90
2463;DHT22;1243;54.298;10.172;2022-11-15T14:43:24;10.90;99.90
2463;DHT22;1243;54.298;10.172;2022-11-15T14:45:50;10.90;99.90
2463;DHT22;1243;54.298;10.172;2022-11-15T14:48:15;10.90;99.90
2463;DHT22;1243;54.298;10.172;2022-11-15T14:50:44;10.90;99.90
2463;DHT22;1243;54.298;10.172;2022-11-15T14:53:12;10.90;99.90
2463;DHT22;1243;54.298;10.172;2022-11-15T14:55:39;10.80;99.90
2463;DHT22;1243;54.298;10.172;2022-11-15T14:58:06;10.80;99.90
2463;DHT22;1243;54.298;10.172;2022-11-15T15:00:37;10.70;99.90
2463;DHT22;1243;54.298;10.172;2022-11-15T15:03:04;10.80;99.90
2463;DHT22;1243;54.298;10.172;2022-11-15T15:05:41;10.70;99.90
2463;DHT22;1243;54.298;10.172;2022-11-15T15:08:07;10.70;99.90
2463;DHT22;1243;54.298;10.172;2022-11-15T15:10:42;10.70;99.90
2463;DHT22;1243;54.298;10.172;2022-11-15T15:13:23;10.60;99.90
2463;DHT22;1243;54.298;10.172;2022-11-15T15:15:50;10.50;99.90
2463;DHT22;1243;54.298;10.172;2022-11-15T15:18:17;10.40;99.90
2463;DHT22;1243;54.298;10.172;2022-11-15T15:20:45;10.40;99.90
2463;DHT22;1243;54.298;10.172;2022-11-15T15:23:18;10.30;99.90
2463;DHT22;1243;54.298;10.172;2022-11-15T15:25:44;10.30;99.90
2463;DHT22;1243;54.298;10.172;2022-11-15T15:28:12;10.30;99.90
2463;DHT22;1243;54.298;10.172;2022-11-15T15:30:38;10.30;99.90
2463;DHT22;1243;54.298;10.172;2022-11-15T15:33:03;10.30;99.90
2463;DHT22;1243;54.298;10.172;2022-11-15T15:35:32;10.30;99.90
2463;DHT22;1243;54.298;10.172;2022-11-15T15:37:58;10.30;99.90
2463;DHT22;1243;54.298;10.172;2022-11-15T15:40:26;10.30;99.90
2463;DHT22;1243;54.298;10.172;2022-11-15T15:42:52;10.20;99.90
2463;DHT22;1243;54.298;10.172;2022-11-15T15:45:18;10.10;99.90
2463;DHT22;1243;54.298;10.172;2022-11-15T15:47:45;10.10;99.90
2463;DHT22;1243;54.298;10.172;2022-11-15T15:50:41;10.10;99.90
2463;DHT22;1243;54.298;10.172;2022-11-15T15:53:09;10.10;99.90
2463;DHT22;1243;54.298;10.172;2022-11-15T15:55:36;10.00;99.90
2463;DHT22;1243;54.298;10.172;2022-11-15T15:58:03;10.00;99.90
2463;DHT22;1243;54.298;10.172;2022-11-15T16:00:28;10.00;99.90
2463;DHT22;1243;54.298;10.172;2022-11-15T16:02:55;10.00;99.90
2463;DHT22;1243;54.298;10.172;2022-11-15T16:05:21;10.00;99.90
2463;DHT22;1243;54.298;10.172;2022-11-15T16:07:47;10.00;99.90
2463;DHT22;1243;54.298;10.172;2022-11-15T16:12:46;9.90;99.90
2463;DHT22;1243;54.298;10.172;2022-11-15T16:15:12;9.90;99.90
2463;DHT22;1243;54.298;10.172;2022-11-15T16:17:42;9.90;99.90
2463;DHT22;1243;54.298;10.172;2022-11-15T16:20:22;9.90;99.90
2463;DHT22;1243;54.298;10.172;2022-11-15T16:22:48;9.80;99.90
2463;DHT22;1243;54.298;10.172;2022-11-15T16:25:14;9.80;99.90
2463;DHT22;1243;54.298;10.172;2022-11-15T16:27:40;9.80;99.90
2463;DHT22;1243;54.298;10.172;2022-11-15T16:30:21;9.80;99.90
2463;DHT22;1243;54.298;10.172;2022-11-15T16:32:48;9.80;99.90
2463;DHT22;1243;54.298;10.172;2022-11-15T16:35:15;9.80;99.90
2463;DHT22;1243;54.298;10.172;2022-11-15T16:37:41;9.70;99.90
2463;DHT22;1243;54.298;10.172;2022-11-15T16:40:32;9.80;99.90
2463;DHT22;1243;54.298;10.172;2022-11-15T16:42:58;9.80;99.90
2463;DHT22;1243;54.298;10.172;2022-11-15T16:45:26;9.80;99.90
2463;DHT22;1243;54.298;10.172;2022-11-15T16:47:54;9.70;99.90
2463;DHT22;1243;54.298;10.172;2022-11-15T16:50:28;9.70;99.90
2463;DHT22;1243;54.298;10.172;2022-11-15T16:52:56;9.70;99.90
2463;DHT22;1243;54.298;10.172;2022-11-15T16:55:24;9.70;99.90
2463;DHT22;1243;54.298;10.172;2022-11-15T16:57:50;9.70;99.90
2463;DHT22;1243;54.298;10.172;2022-11-15T17:00:17;9.70;99.90
2463;DHT22;1243;54.298;10.172;2022-11-15T17:02:44;9.70;99.90
2463;DHT22;1243;54.298;10.172;2022-11-15T17:05:11;9.70;99.90
2463;DHT22;1243;54.298;10.172;2022-11-15T17:07:37;9.70;99.90
2463;DHT22;1243;54.298;10.172;2022-11-15T17:10:04;9.60;99.90
2463;DHT22;1243;54.298;10.172;2022-11-15T17:12:30;9.50;99.90
2463;DHT22;1243;54.298;10.172;2022-11-15T17:14:56;9.50;99.90
2463;DHT22;1243;54.298;10.172;2022-11-15T17:17:22;9.40;99.90
2463;DHT22;1243;54.298;10.172;2022-11-15T17:19:48;9.40;99.90
2463;DHT22;1243;54.298;10.172;2022-11-15T17:22:14;9.40;99.90
2463;DHT22;1243;54.298;10.172;2022-11-15T17:24:39;9.30;99.90
2463;DHT22;1243;54.298;10.172;2022-11-15T17:27:05;9.30;99.90
2463;DHT22;1243;54.298;10.172;2022-11-15T17:29:31;9.30;99.90
2463;DHT22;1243;54.298;10.172;2022-11-15T17:31:57;9.20;99.90
2463;DHT22;1243;54.298;10.172;2022-11-15T17:34:22;9.20;99.90
2463;DHT22;1243;54.298;10.172;2022-11-15T17:36:48;9.20;1.00
2463;DHT22;1243;54.298;10.172;2022-11-15T17:39:14;9.20;1.00
2463;DHT22;1243;54.298;10.172;2022-11-15T17:41:40;9.30;1.00
2463;DHT22;1243;54.298;10.172;2022-11-15T17:44:05;9.30;1.00
2463;DHT22;1243;54.298;10.172;2022-11-15T17:46:31;9.30;1.00
2463;DHT22;1243;54.298;10.172;2022-11-15T17:48:58;9.30;1.00
2463;DHT22;1243;54.298;10.172;2022-11-15T17:51:24;9.30;1.00
2463;DHT22;1243;54.298;10.172;2022-11-15T17:53:50;9.30;1.00
2463;DHT22;1243;54.298;10.172;2022-11-15T17:56:19;9.40;1.00
2463;DHT22;1243;54.298;10.172;2022-11-15T17:58:56;9.40;1.00
2463;DHT22;1243;54.298;10.172;2022-11-15T18:01:30;9.40;1.00
2463;DHT22;1243;54.298;10.172;2022-11-15T18:03:57;9.40;1.00
2463;DHT22;1243;54.298;10.172;2022-11-15T18:06:25;9.50;1.00
2463;DHT22;1243;54.298;10.172;2022-11-15T18:08:53;9.50;1.00
2463;DHT22;1243;54.298;10.172;2022-11-15T18:11:24;9.50;1.00
2463;DHT22;1243;54.298;10.172;2022-11-15T18:13:53;9.60;1.00
2463;DHT22;1243;54.298;10.172;2022-11-15T18:16:21;9.60;1.00
2463;DHT22;1243;54.298;10.172;2022-11-15T18:18:49;9.60;1.00
2463;DHT22;1243;54.298;10.172;2022-11-15T18:21:29;9.70;1.00
2463;DHT22;1243;54.298;10.172;2022-11-15T18:23:57;9.60;1.00